createdAt,value
2024-04-24T00:01:35.934Z,100.00
2024-04-24T00:04:36.903Z,100.00
2024-04-24T00:07:37.902Z,100.00
2024-04-24T00:10:38.943Z,100.00
2024-04-24T00:13:39.932Z,100.00
2024-04-24T00:16:41.927Z,100.00
2024-04-24T00:19:42.922Z,100.00
2024-04-24T00:22:43.970Z,100.00
2024-04-24T00:25:44.951Z,100.00
2024-04-24T00:28:46.010Z,100.00
2024-04-24T00:31:46.999Z,100.00
2024-04-24T00:34:48.050Z,100.00
2024-04-24T00:37:48.993Z,100.00
2024-04-24T00:40:53.033Z,100.00
2024-04-24T00:43:54.045Z,100.00
2024-04-24T00:46:57.993Z,100.00
2024-04-24T00:50:00.040Z,100.00
2024-04-24T00:53:01.022Z,100.00
2024-04-24T00:56:02.054Z,100.00
2024-04-24T00:59:03.071Z,100.00
2024-04-24T01:02:04.078Z,100.00
2024-04-24T01:05:05.064Z,100.00
2024-04-24T01:08:06.022Z,100.00
2024-04-24T01:11:11.073Z,100.00
2024-04-24T01:14:12.076Z,100.00
2024-04-24T01:17:18.190Z,100.00
2024-04-24T01:20:26.070Z,100.00
2024-04-24T01:24:01.066Z,100.00
2024-04-24T01:27:04.069Z,100.00
2024-04-24T01:30:05.070Z,100.00
2024-04-24T01:33:06.226Z,100.00
2024-04-24T01:36:07.210Z,100.00
2024-04-24T01:39:08.067Z,100.00
2024-04-24T01:42:09.108Z,100.00
2024-04-24T01:45:10.095Z,100.00
2024-04-24T01:48:11.207Z,100.00
2024-04-24T01:51:12.098Z,100.00
2024-04-24T01:54:13.140Z,100.00
2024-04-24T01:57:14.156Z,100.00
2024-04-24T02:00:15.110Z,100.00
2024-04-24T02:03:16.254Z,100.00
2024-04-24T02:06:17.136Z,100.00
2024-04-24T02:09:18.166Z,100.00
2024-04-24T02:12:19.300Z,100.00
2024-04-24T02:15:20.183Z,100.00
2024-04-24T02:18:21.269Z,100.00
2024-04-24T02:21:22.187Z,100.00
2024-04-24T02:24:44.193Z,100.00
2024-04-24T02:27:45.192Z,100.00
2024-04-24T02:30:46.178Z,100.00
2024-04-24T02:33:47.275Z,100.00
2024-04-24T02:36:48.200Z,100.00
2024-04-24T02:39:49.214Z,100.00
2024-04-24T02:42:44.246Z,100.00
2024-04-24T02:45:45.213Z,100.00
2024-04-24T02:48:46.333Z,100.00
2024-04-24T02:51:47.240Z,100.00
2024-04-24T02:54:48.259Z,100.00
2024-04-24T02:57:49.248Z,100.00
2024-04-24T03:00:50.319Z,100.00
2024-04-24T03:03:51.340Z,100.00
2024-04-24T03:06:56.286Z,100.00
2024-04-24T03:09:57.253Z,100.00
2024-04-24T03:12:58.306Z,100.00
2024-04-24T03:15:59.301Z,100.00
2024-04-24T03:19:00.347Z,100.00
2024-04-24T03:22:01.287Z,100.00
2024-04-24T03:25:03.327Z,100.00
2024-04-24T03:28:04.324Z,100.00
2024-04-24T03:31:05.316Z,100.00
2024-04-24T03:34:06.346Z,100.00
2024-04-24T03:37:07.344Z,100.00
2024-04-24T03:40:08.357Z,100.00
2024-04-24T03:43:09.342Z,100.00
2024-04-24T03:46:10.353Z,100.00
2024-04-24T03:49:11.368Z,100.00
2024-04-24T03:52:12.436Z,100.00
2024-04-24T03:55:13.365Z,100.00
2024-04-24T03:58:14.384Z,100.00
2024-04-24T04:01:15.444Z,100.00
2024-04-24T04:04:16.471Z,100.00
2024-04-24T04:07:17.422Z,100.00
2024-04-24T04:10:18.420Z,100.00
2024-04-24T04:13:19.412Z,100.00
2024-04-24T04:16:20.396Z,100.00
2024-04-24T04:19:21.435Z,100.00
2024-04-24T04:22:23.399Z,100.00
2024-04-24T04:25:24.433Z,100.00
2024-04-24T04:28:25.440Z,100.00
2024-04-24T04:31:26.465Z,100.00
2024-04-24T04:34:27.441Z,100.00
2024-04-24T04:37:28.470Z,100.00
2024-04-24T04:40:29.478Z,100.00
2024-04-24T04:43:30.482Z,100.00
2024-04-24T04:46:31.490Z,100.00
2024-04-24T04:49:32.518Z,100.00
2024-04-24T04:52:33.502Z,100.00
2024-04-24T04:55:34.495Z,100.00
2024-04-24T04:58:35.516Z,100.00
2024-04-24T05:01:36.537Z,100.00
2024-04-24T05:04:37.572Z,100.00
2024-04-24T05:07:38.482Z,100.00
2024-04-24T05:10:40.586Z,100.00
2024-04-24T05:13:41.515Z,100.00
2024-04-24T05:16:42.551Z,100.00
2024-04-24T05:19:43.751Z,100.00
2024-04-24T05:22:54.626Z,100.00
2024-04-24T05:25:59.566Z,100.00
2024-04-24T05:29:14.677Z,100.00
2024-04-24T05:32:15.611Z,100.00
2024-04-24T05:35:16.621Z,100.00
2024-04-24T05:38:17.643Z,100.00
2024-04-24T05:41:18.621Z,100.00
2024-04-24T05:44:19.692Z,100.00
2024-04-24T05:47:20.654Z,100.00
2024-04-24T05:50:21.767Z,100.00
2024-04-24T05:53:22.711Z,100.00
2024-04-24T05:56:23.644Z,100.00
2024-04-24T05:59:24.768Z,100.00
2024-04-24T06:02:25.673Z,100.00
2024-04-24T06:05:26.729Z,100.00
2024-04-24T06:08:27.676Z,100.00
2024-04-24T06:11:28.687Z,100.00
2024-04-24T06:14:29.685Z,100.00
2024-04-24T06:17:30.776Z,100.00
2024-04-24T06:20:31.760Z,100.00
2024-04-24T06:23:32.780Z,100.00
2024-04-24T06:26:33.677Z,100.00
2024-04-24T06:29:34.714Z,100.00
2024-04-24T06:32:35.751Z,100.00
2024-04-24T06:35:36.816Z,100.00
2024-04-24T06:38:37.694Z,100.00
2024-04-24T06:41:38.759Z,100.00
2024-04-24T06:44:39.694Z,100.00
2024-04-24T06:47:40.799Z,100.00
2024-04-24T06:50:42.750Z,100.00
2024-04-24T06:53:46.752Z,100.00
2024-04-24T06:56:47.765Z,100.00
2024-04-24T06:59:48.808Z,100.00
2024-04-24T07:02:49.792Z,100.00
2024-04-24T07:05:50.764Z,100.00
2024-04-24T07:08:51.784Z,100.00
2024-04-24T07:11:52.948Z,100.00
2024-04-24T07:14:53.849Z,100.00
2024-04-24T07:17:55.148Z,100.00
2024-04-24T07:20:55.813Z,100.00
2024-04-24T07:23:56.836Z,100.00
2024-04-24T07:26:57.806Z,100.00
2024-04-24T07:29:58.841Z,100.00
2024-04-24T07:32:59.864Z,100.00
2024-04-24T07:36:02.204Z,100.00
2024-04-24T07:39:03.842Z,100.00
2024-04-24T07:42:04.857Z,100.00
2024-04-24T07:45:05.863Z,100.00
2024-04-24T07:48:07.049Z,100.00
2024-04-24T07:51:07.872Z,100.00
2024-04-24T07:54:08.877Z,100.00
2024-04-24T07:57:09.859Z,100.00
2024-04-24T08:00:10.878Z,100.00
2024-04-24T08:03:11.948Z,100.00
2024-04-24T08:06:13.932Z,100.00
2024-04-24T08:09:14.910Z,100.00
2024-04-24T08:12:17.047Z,100.00
2024-04-24T08:15:17.916Z,100.00
2024-04-24T08:18:19.022Z,100.00
2024-04-24T08:21:19.949Z,100.00
2024-04-24T08:24:20.984Z,100.00
2024-04-24T08:27:21.985Z,100.00
2024-04-24T08:30:23.016Z,100.00
2024-04-24T08:33:24.049Z,100.00
2024-04-24T08:36:25.964Z,100.00
2024-04-24T08:39:26.980Z,100.00
2024-04-24T08:42:27.934Z,100.00
2024-04-24T08:45:29.985Z,100.00
2024-04-24T08:48:31.076Z,100.00
2024-04-24T08:51:32.039Z,100.00
2024-04-24T08:54:32.971Z,100.00
2024-04-24T08:57:34.015Z,100.00
2024-04-24T09:00:37.111Z,100.00
2024-04-24T09:04:13.148Z,100.00
2024-04-24T09:07:15.091Z,100.00
2024-04-24T09:10:16.039Z,100.00
2024-04-24T09:13:17.066Z,100.00
2024-04-24T09:16:23.113Z,100.00
2024-04-24T09:19:24.085Z,100.00
2024-04-24T09:22:25.043Z,100.00
2024-04-24T09:25:26.068Z,100.00
2024-04-24T09:28:27.110Z,100.00
2024-04-24T09:31:28.052Z,100.00
2024-04-24T09:34:29.148Z,100.00
2024-04-24T09:37:30.093Z,100.00
2024-04-24T09:40:31.133Z,100.00
2024-04-24T09:43:32.141Z,100.00
2024-04-24T09:46:33.144Z,100.00
2024-04-24T09:49:35.135Z,100.00
2024-04-24T09:52:36.111Z,100.00
2024-04-24T09:55:40.155Z,100.00
2024-04-24T09:58:42.247Z,100.00
2024-04-24T10:01:46.120Z,100.00
2024-04-24T10:04:48.205Z,100.00
2024-04-24T10:07:56.214Z,100.00
2024-04-24T10:11:03.222Z,100.00
2024-04-24T10:14:05.210Z,100.00
2024-04-24T10:17:07.250Z,100.00
2024-04-24T10:20:19.041Z,100.00
2024-04-24T10:23:24.549Z,100.00
2024-04-24T10:26:26.222Z,100.00
2024-04-24T10:29:27.278Z,100.00
2024-04-24T10:32:33.369Z,100.00
2024-04-24T10:35:35.248Z,100.00
2024-04-24T10:38:39.500Z,100.00
2024-04-24T10:41:40.271Z,100.00
2024-04-24T10:44:41.213Z,100.00
2024-04-24T10:47:42.338Z,100.00
2024-04-24T10:50:43.486Z,100.00
2024-04-24T10:53:51.922Z,100.00
2024-04-24T10:56:59.289Z,100.00
2024-04-24T11:00:00.356Z,100.00
2024-04-24T11:03:13.396Z,100.00
2024-04-24T11:06:23.325Z,100.00
2024-04-24T11:09:24.299Z,100.00
2024-04-24T11:12:26.281Z,100.00
2024-04-24T11:15:37.344Z,100.00
2024-04-24T11:18:38.344Z,100.00
2024-04-24T11:21:40.346Z,100.00
2024-04-24T11:24:45.358Z,100.00
2024-04-24T11:27:46.339Z,100.00
2024-04-24T11:30:47.311Z,100.00
2024-04-24T11:33:50.524Z,100.00
2024-04-24T11:36:53.324Z,100.00
2024-04-24T11:39:54.392Z,100.00
2024-04-24T11:42:56.409Z,100.00
2024-04-24T11:45:57.434Z,100.00
2024-04-24T11:48:58.416Z,100.00
2024-04-24T11:52:00.355Z,100.00
2024-04-24T11:55:06.404Z,100.00
2024-04-24T11:58:07.370Z,100.00
2024-04-24T12:01:08.442Z,100.00
2024-04-24T12:04:09.468Z,100.00
2024-04-24T12:07:10.471Z,100.00
2024-04-24T12:10:14.410Z,100.00
2024-04-24T12:13:17.436Z,100.00
2024-04-24T12:16:18.521Z,100.00
2024-04-24T12:19:19.476Z,100.00
2024-04-24T12:22:20.476Z,100.00
2024-04-24T12:25:21.480Z,100.00
2024-04-24T12:28:22.499Z,100.00
2024-04-24T12:31:23.474Z,100.00
2024-04-24T12:34:26.540Z,100.00
2024-04-24T12:37:27.450Z,100.00
2024-04-24T12:40:28.505Z,100.00
2024-04-24T12:43:29.509Z,100.00
2024-04-24T12:46:30.496Z,100.00
2024-04-24T12:49:31.490Z,100.00
2024-04-24T12:52:32.637Z,100.00
2024-04-24T12:55:33.565Z,100.00
2024-04-24T12:58:35.795Z,100.00
2024-04-24T13:01:37.610Z,100.00
2024-04-24T13:04:38.562Z,100.00
2024-04-24T13:07:39.522Z,100.00
2024-04-24T13:10:40.676Z,100.00
2024-04-24T13:13:41.602Z,100.00
2024-04-24T13:16:42.577Z,100.00
2024-04-24T13:19:43.649Z,100.00
2024-04-24T13:22:44.574Z,100.00
2024-04-24T13:25:45.654Z,100.00
2024-04-24T13:28:54.645Z,100.00
2024-04-24T13:31:55.659Z,100.00
2024-04-24T13:34:56.654Z,100.00
2024-04-24T13:37:57.769Z,100.00
2024-04-24T13:40:58.668Z,100.00
2024-04-24T13:43:59.679Z,100.00
2024-04-24T13:47:00.721Z,100.00
2024-04-24T13:50:01.772Z,100.00
2024-04-24T13:53:02.713Z,100.00
2024-04-24T13:56:03.675Z,100.00
2024-04-24T13:59:04.727Z,100.00
2024-04-24T14:02:05.685Z,100.00
2024-04-24T14:05:06.786Z,100.00
2024-04-24T14:08:07.749Z,100.00
2024-04-24T14:11:08.788Z,100.00
2024-04-24T14:14:09.749Z,100.00
2024-04-24T14:17:10.716Z,100.00
2024-04-24T14:20:11.721Z,100.00
2024-04-24T14:23:12.757Z,99.93
2024-04-24T14:26:13.760Z,99.95
2024-04-24T14:29:14.962Z,99.86
2024-04-24T14:32:15.779Z,99.81
2024-04-24T14:35:19.763Z,99.76
2024-04-24T14:38:20.779Z,99.51
2024-04-24T14:41:21.765Z,99.29
2024-04-24T14:44:22.764Z,99.05
2024-04-24T14:47:26.826Z,99.24
2024-04-24T14:50:27.879Z,99.47
2024-04-24T14:53:28.790Z,99.48
2024-04-24T14:56:30.068Z,99.53
2024-04-24T14:59:31.310Z,99.40
2024-04-24T15:02:31.866Z,99.49
2024-04-24T15:05:32.847Z,99.60
2024-04-24T15:08:27.047Z,99.76
2024-04-24T15:11:27.873Z,99.76
2024-04-24T15:14:31.082Z,99.74
2024-04-24T15:17:31.984Z,99.86
2024-04-24T15:20:32.860Z,99.88
2024-04-24T15:23:33.945Z,99.94
2024-04-24T15:26:34.875Z,100.00
2024-04-24T15:29:35.908Z,100.00
2024-04-24T15:32:37.092Z,100.00
2024-04-24T15:35:37.955Z,100.00
2024-04-24T15:38:38.872Z,100.00
2024-04-24T15:41:39.955Z,100.00
2024-04-24T15:44:41.946Z,100.00
2024-04-24T15:47:43.009Z,100.00
2024-04-24T15:50:43.926Z,100.00
2024-04-24T15:53:44.953Z,100.00
2024-04-24T15:56:45.915Z,100.00
2024-04-24T15:59:46.921Z,100.00
2024-04-24T16:02:47.984Z,100.00
2024-04-24T16:05:48.962Z,100.00
2024-04-24T16:08:49.963Z,100.00
2024-04-24T16:11:51.069Z,100.00
2024-04-24T16:14:51.981Z,100.00
2024-04-24T16:17:54.170Z,100.00
2024-04-24T16:20:54.976Z,100.00
2024-04-24T16:23:56.020Z,100.00
2024-04-24T16:26:57.025Z,100.00
2024-04-24T16:29:58.183Z,100.00
2024-04-24T16:32:59.217Z,100.00
2024-04-24T16:36:00.020Z,100.00
2024-04-24T16:39:00.984Z,100.00
2024-04-24T16:42:02.024Z,100.00
2024-04-24T16:45:03.164Z,100.00
2024-04-24T16:48:04.193Z,100.00
2024-04-24T16:51:05.386Z,100.00
2024-04-24T16:54:07.159Z,100.00
2024-04-24T16:57:08.041Z,100.00
2024-04-24T17:00:09.080Z,100.00
2024-04-24T17:03:10.066Z,100.00
2024-04-24T17:06:11.116Z,100.00
2024-04-24T17:09:12.062Z,100.00
2024-04-24T17:12:14.086Z,100.00
2024-04-24T17:15:15.111Z,100.00
2024-04-24T17:18:17.326Z,100.00
2024-04-24T17:21:18.099Z,100.00
2024-04-24T17:24:28.110Z,100.00
2024-04-24T17:27:29.122Z,100.00
2024-04-24T17:30:30.132Z,100.00
2024-04-24T17:33:31.146Z,100.00
2024-04-24T17:36:32.114Z,100.00
2024-04-24T17:39:33.204Z,100.00
2024-04-24T17:42:34.247Z,100.00
2024-04-24T17:45:36.267Z,100.00
2024-04-24T17:48:37.254Z,100.00
2024-04-24T17:51:38.174Z,100.00
2024-04-24T17:54:39.185Z,100.00
2024-04-24T17:57:42.192Z,100.00
2024-04-24T18:00:45.249Z,100.00
2024-04-24T18:03:47.318Z,100.00
2024-04-24T18:06:48.265Z,100.00
2024-04-24T18:09:49.244Z,100.00
2024-04-24T18:12:52.235Z,100.00
2024-04-24T18:15:53.216Z,100.00
2024-04-24T18:18:54.337Z,100.00
2024-04-24T18:21:55.257Z,100.00
2024-04-24T18:24:56.251Z,100.00
2024-04-24T18:27:57.251Z,100.00
2024-04-24T18:30:58.379Z,100.00
2024-04-24T18:33:59.500Z,100.00
2024-04-24T18:37:01.383Z,100.00
2024-04-24T18:40:05.715Z,100.00
2024-04-24T18:43:08.519Z,100.00
2024-04-24T18:46:10.289Z,100.00
2024-04-24T18:49:11.317Z,100.00
2024-04-24T18:52:12.300Z,100.00
2024-04-24T18:55:13.383Z,100.00
2024-04-24T18:58:16.327Z,100.00
2024-04-24T19:01:18.378Z,100.00
2024-04-24T19:04:20.605Z,100.00
2024-04-24T19:07:24.790Z,100.00
2024-04-24T19:10:25.809Z,100.00
2024-04-24T19:13:26.434Z,100.00
2024-04-24T19:16:27.384Z,100.00
2024-04-24T19:19:28.356Z,100.00
2024-04-24T19:22:29.371Z,100.00
2024-04-24T19:25:30.413Z,100.00
2024-04-24T19:28:31.430Z,100.00
2024-04-24T19:31:33.531Z,100.00
2024-04-24T19:34:34.428Z,100.00
2024-04-24T19:37:36.381Z,100.00
2024-04-24T19:40:41.401Z,100.00
2024-04-24T19:43:37.423Z,100.00
2024-04-24T19:46:25.451Z,100.00
2024-04-24T19:49:26.438Z,100.00
2024-04-24T19:52:27.429Z,100.00
2024-04-24T19:55:28.454Z,100.00
2024-04-24T19:58:29.449Z,100.00
2024-04-24T20:01:30.485Z,100.00
2024-04-24T20:04:32.661Z,100.00
2024-04-24T20:07:33.494Z,100.00
2024-04-24T20:10:34.645Z,100.00
2024-04-24T20:13:35.537Z,100.00
2024-04-24T20:16:36.485Z,100.00
2024-04-24T20:19:37.497Z,100.00
2024-04-24T20:22:38.501Z,100.00
2024-04-24T20:25:39.497Z,100.00
2024-04-24T20:28:41.533Z,100.00
2024-04-24T20:31:42.514Z,100.00
2024-04-24T20:34:43.517Z,100.00
2024-04-24T20:37:44.523Z,100.00
2024-04-24T20:40:45.561Z,100.00
2024-04-24T20:43:46.533Z,100.00
2024-04-24T20:46:52.614Z,100.00
2024-04-24T20:49:53.552Z,100.00
2024-04-24T20:52:54.581Z,100.00
2024-04-24T20:55:56.580Z,100.00
2024-04-24T20:58:57.626Z,100.00
2024-04-24T21:01:58.598Z,100.00
2024-04-24T21:04:59.595Z,100.00
2024-04-24T21:08:01.641Z,100.00
2024-04-24T21:10:57.291Z,100.00
2024-04-24T21:13:57.651Z,100.00
2024-04-24T21:16:58.612Z,100.00
2024-04-24T21:19:59.649Z,100.00
2024-04-24T21:23:00.805Z,100.00
2024-04-24T21:26:01.796Z,100.00
2024-04-24T21:29:02.710Z,100.00
2024-04-24T21:32:03.784Z,100.00
2024-04-24T21:35:04.691Z,100.00
2024-04-24T21:38:05.671Z,100.00
2024-04-24T21:41:06.736Z,100.00
2024-04-24T21:44:07.685Z,100.00
2024-04-24T21:47:08.711Z,100.00
2024-04-24T21:50:09.732Z,100.00
2024-04-24T21:53:11.736Z,100.00
2024-04-24T21:56:12.722Z,100.00
2024-04-24T21:59:13.758Z,100.00
2024-04-24T22:02:14.721Z,100.00
2024-04-24T22:05:15.780Z,100.00
2024-04-24T22:08:16.738Z,100.00
2024-04-24T22:11:17.950Z,100.00
2024-04-24T22:14:18.772Z,100.00
2024-04-24T22:17:25.390Z,100.00
2024-04-24T22:20:29.824Z,100.00
2024-04-24T22:23:30.781Z,100.00
2024-04-24T22:26:33.764Z,100.00
2024-04-24T22:29:34.859Z,100.00
2024-04-24T22:32:35.824Z,100.00
2024-04-24T22:35:36.859Z,100.00
2024-04-24T22:38:38.841Z,100.00
2024-04-24T22:41:39.783Z,100.00
2024-04-24T22:44:40.865Z,100.00
2024-04-24T22:47:41.877Z,100.00
2024-04-24T22:50:42.916Z,100.00
2024-04-24T22:53:43.810Z,100.00
2024-04-24T22:56:46.822Z,100.00
2024-04-24T22:59:47.823Z,100.00
2024-04-24T23:02:41.920Z,100.00
2024-04-24T23:05:28.888Z,100.00
2024-04-24T23:08:30.921Z,100.00
2024-04-24T23:11:31.905Z,100.00
2024-04-24T23:14:32.946Z,100.00
2024-04-24T23:17:34.030Z,100.00
2024-04-24T23:20:37.502Z,100.00
2024-04-24T23:23:38.990Z,100.00
2024-04-24T23:26:39.943Z,100.00
2024-04-24T23:29:40.928Z,100.00
2024-04-24T23:32:42.016Z,100.00
2024-04-24T23:35:43.014Z,100.00
2024-04-24T23:38:43.940Z,100.00
2024-04-24T23:41:44.944Z,100.00
2024-04-24T23:44:39.115Z,100.00
2024-04-24T23:47:41.073Z,100.00
2024-04-24T23:50:42.006Z,100.00
2024-04-24T23:53:38.049Z,100.00
2024-04-24T23:56:25.989Z,100.00
2024-04-24T23:59:27.989Z,100.00
